createdAt,value
2022-11-26T00:01:18.702Z,101702.00
2022-11-26T00:03:46.158Z,101706.00
2022-11-26T00:06:35.997Z,101692.00
2022-11-26T00:09:05.304Z,101720.00
2022-11-26T00:11:32.471Z,101717.00
2022-11-26T00:13:59.332Z,101708.00
2022-11-26T00:16:26.543Z,101719.00
2022-11-26T00:18:53.368Z,101720.00
2022-11-26T00:21:25.358Z,101726.00
2022-11-26T00:23:53.475Z,101723.00
2022-11-26T00:26:22.686Z,101720.00
2022-11-26T00:29:00.447Z,101728.00
2022-11-26T00:31:28.592Z,101726.00
2022-11-26T00:33:55.350Z,101733.00
2022-11-26T00:36:31.244Z,101738.00
2022-11-26T00:39:11.276Z,101742.00
2022-11-26T00:41:39.569Z,101741.00
2022-11-26T00:44:20.852Z,101742.00
2022-11-26T00:46:48.566Z,101749.00
2022-11-26T00:49:16.218Z,101744.00
2022-11-26T00:51:43.552Z,101762.00
2022-11-26T00:54:12.765Z,101763.00
2022-11-26T00:56:40.232Z,101771.00
2022-11-26T00:59:07.200Z,101766.00
2022-11-26T01:01:34.033Z,101769.00
2022-11-26T01:04:00.809Z,101776.00
2022-11-26T01:06:36.965Z,101777.00
2022-11-26T01:09:05.139Z,101786.00
2022-11-26T01:11:32.279Z,101791.00
2022-11-26T01:13:59.342Z,101802.00
2022-11-26T01:16:28.713Z,101808.00
2022-11-26T01:18:57.609Z,101804.00
2022-11-26T01:21:26.419Z,101797.00
2022-11-26T01:23:53.340Z,101814.00
2022-11-26T01:26:25.661Z,101811.00
2022-11-26T01:28:52.573Z,101811.00
2022-11-26T01:31:24.878Z,101809.00
2022-11-26T01:33:51.822Z,101815.00
2022-11-26T01:36:25.852Z,101819.00
2022-11-26T01:38:54.781Z,101819.00
2022-11-26T01:41:39.772Z,101812.00
2022-11-26T01:44:14.015Z,101819.00
2022-11-26T01:46:40.964Z,101829.00
2022-11-26T01:49:25.423Z,101823.00
2022-11-26T01:52:19.698Z,101829.00
2022-11-26T01:54:47.266Z,101832.00
2022-11-26T01:57:19.543Z,101833.00
2022-11-26T01:59:50.301Z,101835.00
2022-11-26T02:02:17.692Z,101838.00
2022-11-26T02:04:56.353Z,101849.00
2022-11-26T02:07:23.328Z,101843.00
2022-11-26T02:09:50.198Z,101842.00
2022-11-26T02:12:16.986Z,101851.00
2022-11-26T02:14:44.306Z,101855.00
2022-11-26T02:17:30.485Z,101869.00
2022-11-26T02:20:34.943Z,101865.00
2022-11-26T02:23:34.030Z,101861.00
2022-11-26T02:26:20.709Z,101865.00
2022-11-26T02:28:54.853Z,101879.00
2022-11-26T02:31:55.819Z,101863.00
2022-11-26T02:34:45.948Z,101873.00
2022-11-26T02:37:25.201Z,101887.00
2022-11-26T02:39:52.181Z,101894.00
2022-11-26T02:42:24.732Z,101886.00
2022-11-26T02:44:52.043Z,101886.00
2022-11-26T02:47:19.184Z,101885.00
2022-11-26T02:49:47.672Z,101881.00
2022-11-26T02:52:15.148Z,101888.00
2022-11-26T02:54:42.472Z,101893.00
2022-11-26T02:57:11.847Z,101892.00
2022-11-26T02:59:38.988Z,101896.00
2022-11-26T03:02:11.273Z,101894.00
2022-11-26T03:04:41.280Z,101894.00
2022-11-26T03:07:09.770Z,101903.00
2022-11-26T03:09:41.710Z,101906.00
2022-11-26T03:12:08.866Z,101912.00
2022-11-26T03:14:36.037Z,101904.00
2022-11-26T03:17:03.046Z,101912.00
2022-11-26T03:19:29.793Z,101902.00
2022-11-26T03:21:56.564Z,101908.00
2022-11-26T03:24:23.335Z,101921.00
2022-11-26T03:26:50.149Z,101923.00
2022-11-26T03:29:16.949Z,101915.00
2022-11-26T03:31:43.765Z,101922.00
2022-11-26T03:34:10.649Z,101925.00
2022-11-26T03:36:37.413Z,101908.00
2022-11-26T03:39:04.476Z,101915.00
2022-11-26T03:41:31.329Z,101913.00
2022-11-26T03:43:58.467Z,101904.00
2022-11-26T03:46:25.330Z,101921.00
2022-11-26T03:48:52.100Z,101911.00
2022-11-26T03:51:18.835Z,101908.00
2022-11-26T03:53:45.821Z,101911.00
2022-11-26T03:56:12.815Z,101911.00
2022-11-26T03:58:39.922Z,101919.00
2022-11-26T04:01:12.084Z,101907.00
2022-11-26T04:03:39.549Z,101905.00
2022-11-26T04:06:06.806Z,101900.00
2022-11-26T04:08:33.883Z,101908.00
2022-11-26T04:11:00.769Z,101908.00
2022-11-26T04:13:27.539Z,101897.00
2022-11-26T04:15:54.283Z,101903.00
2022-11-26T04:18:21.199Z,101910.00
2022-11-26T04:20:52.825Z,101907.00
2022-11-26T04:23:20.369Z,101894.00
2022-11-26T04:25:47.172Z,101897.00
2022-11-26T04:28:15.168Z,101903.00
2022-11-26T04:30:42.779Z,101909.00
2022-11-26T04:33:09.678Z,101905.00
2022-11-26T04:35:36.535Z,101915.00
2022-11-26T04:38:03.335Z,101909.00
2022-11-26T04:40:30.098Z,101920.00
2022-11-26T04:42:56.862Z,101914.00
2022-11-26T04:45:23.617Z,101938.00
2022-11-26T04:47:50.407Z,101929.00
2022-11-26T04:50:17.264Z,101934.00
2022-11-26T04:52:44.068Z,101938.00
2022-11-26T04:55:10.877Z,101947.00
2022-11-26T04:57:37.687Z,101942.00
2022-11-26T05:00:07.223Z,101942.00
2022-11-26T05:02:34.059Z,101932.00
2022-11-26T05:05:00.882Z,101941.00
2022-11-26T05:07:27.873Z,101944.00
2022-11-26T05:09:54.661Z,101955.00
2022-11-26T05:12:21.441Z,101958.00
2022-11-26T05:14:48.227Z,101956.00
2022-11-26T05:17:15.990Z,101950.00
2022-11-26T05:19:42.848Z,101965.00
2022-11-26T05:22:09.676Z,101953.00
2022-11-26T05:24:38.078Z,101957.00
2022-11-26T05:27:05.206Z,101957.00
2022-11-26T05:29:32.854Z,101965.00
2022-11-26T05:31:59.671Z,101970.00
2022-11-26T05:34:26.612Z,101971.00
2022-11-26T05:36:53.383Z,101974.00
2022-11-26T05:39:20.365Z,101973.00
2022-11-26T05:41:47.151Z,101988.00
2022-11-26T05:44:13.943Z,101981.00
2022-11-26T05:46:42.697Z,101993.00
2022-11-26T05:49:09.665Z,101993.00
2022-11-26T05:51:36.433Z,102004.00
2022-11-26T05:54:03.651Z,101994.00
2022-11-26T05:56:30.405Z,102002.00
2022-11-26T05:58:57.207Z,102006.00
2022-11-26T06:01:23.951Z,102014.00
2022-11-26T06:03:50.925Z,102007.00
2022-11-26T06:06:17.703Z,102009.00
2022-11-26T06:08:44.464Z,102016.00
2022-11-26T06:11:13.231Z,102010.00
2022-11-26T06:13:40.023Z,102018.00
2022-11-26T06:16:07.101Z,102020.00
2022-11-26T06:18:33.949Z,102011.00
2022-11-26T06:21:01.598Z,102016.00
2022-11-26T06:23:28.462Z,102034.00
2022-11-26T06:25:55.492Z,102037.00
2022-11-26T06:28:22.327Z,102025.00
2022-11-26T06:30:49.143Z,102034.00
2022-11-26T06:33:15.983Z,102035.00
2022-11-26T06:35:42.726Z,102051.00
2022-11-26T06:38:09.644Z,102042.00
2022-11-26T06:40:36.391Z,102046.00
2022-11-26T06:43:03.350Z,102069.00
2022-11-26T06:45:30.191Z,102068.00
2022-11-26T06:47:56.998Z,102074.00
2022-11-26T06:50:23.818Z,102070.00
2022-11-26T06:52:52.826Z,102072.00
2022-11-26T06:55:21.321Z,102081.00
2022-11-26T06:57:52.121Z,102087.00
2022-11-26T07:00:22.188Z,102089.00
2022-11-26T07:02:49.034Z,102088.00
2022-11-26T07:05:15.843Z,102079.00
2022-11-26T07:07:42.671Z,102084.00
2022-11-26T07:10:09.734Z,102096.00
2022-11-26T07:12:36.525Z,102093.00
2022-11-26T07:15:03.548Z,102094.00
2022-11-26T07:17:30.341Z,102097.00
2022-11-26T07:19:57.119Z,102098.00
2022-11-26T07:22:23.909Z,102087.00
2022-11-26T07:24:50.682Z,102097.00
2022-11-26T07:27:17.512Z,102109.00
2022-11-26T07:29:44.343Z,102109.00
2022-11-26T07:32:11.114Z,102119.00
2022-11-26T07:34:38.161Z,102115.00
2022-11-26T07:37:05.141Z,102129.00
2022-11-26T07:39:31.984Z,102132.00
2022-11-26T07:41:58.744Z,102139.00
2022-11-26T07:44:25.574Z,102139.00
2022-11-26T07:46:52.364Z,102135.00
2022-11-26T07:49:19.195Z,102142.00
2022-11-26T07:51:46.046Z,102148.00
2022-11-26T07:54:12.835Z,102142.00
2022-11-26T07:56:39.658Z,102150.00
2022-11-26T07:59:06.469Z,102144.00
2022-11-26T08:01:33.347Z,102148.00
2022-11-26T08:04:00.759Z,102147.00
2022-11-26T08:06:29.308Z,102145.00
2022-11-26T10:55:47.267Z,102333.00
2022-11-26T10:58:40.956Z,102340.00
2022-11-26T11:01:08.265Z,102340.00
2022-11-26T11:04:07.178Z,102331.00
2022-11-26T11:06:43.828Z,102338.00
2022-11-26T11:09:27.870Z,102337.00
2022-11-26T11:12:13.680Z,102340.00
2022-11-26T11:14:43.505Z,102334.00
2022-11-26T11:17:32.155Z,102334.00
2022-11-26T11:20:03.068Z,102342.00
2022-11-26T11:22:29.980Z,102330.00
2022-11-26T11:24:58.944Z,102324.00
2022-11-26T11:27:46.947Z,102333.00
2022-11-26T11:30:41.121Z,102339.00
2022-11-26T11:33:19.577Z,102338.00
2022-11-26T11:36:15.321Z,102335.00
2022-11-26T11:38:48.725Z,102337.00
2022-11-26T11:41:29.174Z,102343.00
2022-11-26T11:44:05.625Z,102348.00
2022-11-26T11:47:13.079Z,102346.00
2022-11-26T11:49:46.078Z,102337.00
2022-11-26T11:52:37.736Z,102337.00
2022-11-26T11:55:13.700Z,102348.00
2022-11-26T11:58:11.730Z,102342.00
2022-11-26T12:01:09.773Z,102333.00
2022-11-26T12:04:19.429Z,102336.00
2022-11-26T12:07:24.796Z,102332.00
2022-11-26T12:10:05.283Z,102340.00
2022-11-26T12:12:37.084Z,102326.00
2022-11-26T12:15:34.925Z,102328.00
2022-11-26T12:18:31.444Z,102332.00
2022-11-26T12:21:12.950Z,102333.00
2022-11-26T12:24:00.882Z,102340.00
2022-11-26T12:26:35.016Z,102332.00
2022-11-26T12:29:25.625Z,102328.00
2022-11-26T12:32:09.645Z,102326.00
2022-11-26T12:34:57.926Z,102328.00
2022-11-26T12:37:46.656Z,102333.00
2022-11-26T12:40:32.163Z,102333.00
2022-11-26T12:43:05.887Z,102331.00
2022-11-26T12:45:56.589Z,102322.00
2022-11-26T12:48:48.361Z,102322.00
2022-11-26T12:51:36.932Z,102318.00
2022-11-26T12:54:09.811Z,102323.00
2022-11-26T12:56:41.563Z,102322.00
2022-11-26T12:59:19.998Z,102319.00
2022-11-26T13:01:47.069Z,102304.00
2022-11-26T13:04:36.867Z,102317.00
2022-11-26T13:07:09.786Z,102318.00
2022-11-26T13:10:03.638Z,102323.00
2022-11-26T13:12:46.815Z,102316.00
2022-11-26T13:15:22.400Z,102319.00
2022-11-26T13:17:50.301Z,102317.00
2022-11-26T13:20:35.386Z,102326.00
2022-11-26T13:23:13.193Z,102322.00
2022-11-26T13:25:42.956Z,102322.00
2022-11-26T13:28:38.939Z,102313.00
2022-11-26T13:31:33.051Z,102305.00
2022-11-26T13:34:21.188Z,102301.00
2022-11-26T13:37:14.824Z,102304.00
2022-11-26T13:40:03.465Z,102296.00
2022-11-26T13:42:41.490Z,102306.00
2022-11-26T13:45:28.543Z,102304.00
2022-11-26T13:48:00.573Z,102304.00
2022-11-26T13:50:35.276Z,102298.00
2022-11-26T13:53:16.866Z,102298.00
2022-11-26T13:55:48.211Z,102307.00
2022-11-26T13:58:21.569Z,102321.00
2022-11-26T14:00:48.392Z,102320.00
2022-11-26T14:03:48.325Z,102308.00
2022-11-26T14:06:15.530Z,102304.00
2022-11-26T14:08:45.028Z,102310.00
2022-11-26T14:11:16.101Z,102315.00
2022-11-26T14:14:06.500Z,102314.00
2022-11-26T14:17:01.870Z,102313.00
2022-11-26T14:19:39.719Z,102302.00
2022-11-26T14:22:08.179Z,102297.00
2022-11-26T14:24:53.349Z,102300.00
2022-11-26T14:27:21.476Z,102305.00
2022-11-26T14:29:58.956Z,102314.00
2022-11-26T14:32:28.105Z,102308.00
2022-11-26T14:34:56.877Z,102308.00
2022-11-26T14:37:26.660Z,102318.00
2022-11-26T14:40:00.896Z,102305.00
2022-11-26T14:42:28.285Z,102310.00
2022-11-26T14:45:02.433Z,102309.00
2022-11-26T14:47:30.497Z,102313.00
2022-11-26T14:50:00.617Z,102316.00
2022-11-26T14:52:37.499Z,102321.00
2022-11-26T14:55:20.386Z,102312.00
2022-11-26T14:57:54.447Z,102315.00
2022-11-26T15:00:25.909Z,102314.00
2022-11-26T15:02:53.273Z,102323.00
2022-11-26T15:05:25.978Z,102318.00
2022-11-26T15:08:06.651Z,102318.00
2022-11-26T15:10:36.074Z,102325.00
2022-11-26T15:13:14.467Z,102320.00
2022-11-26T15:15:57.842Z,102328.00
2022-11-26T15:18:34.216Z,102327.00
2022-11-26T15:21:03.648Z,102315.00
2022-11-26T15:23:37.622Z,102329.00
2022-11-26T15:26:04.844Z,102307.00
2022-11-26T15:28:39.033Z,102317.00
2022-11-26T15:31:08.499Z,102322.00
2022-11-26T15:33:37.025Z,102320.00
2022-11-26T15:36:09.518Z,102317.00
2022-11-26T15:39:00.113Z,102321.00
2022-11-26T15:41:26.931Z,102314.00
2022-11-26T15:43:56.312Z,102307.00
2022-11-26T15:46:32.206Z,102309.00
2022-11-26T15:49:04.727Z,102312.00
2022-11-26T15:51:42.393Z,102326.00
2022-11-26T15:54:49.581Z,102316.00
2022-11-26T15:57:41.987Z,102313.00
2022-11-26T16:00:41.696Z,102318.00
2022-11-26T16:03:39.686Z,102322.00
2022-11-26T16:06:08.446Z,102316.00
2022-11-26T16:08:35.392Z,102325.00
2022-11-26T16:11:08.644Z,102320.00
2022-11-26T16:13:36.320Z,102321.00
2022-11-26T16:16:25.699Z,102321.00
2022-11-26T16:19:00.357Z,102319.00
2022-11-26T16:21:32.327Z,102323.00
2022-11-26T16:24:05.509Z,102328.00
2022-11-26T16:26:52.407Z,102322.00
2022-11-26T16:29:19.174Z,102320.00
2022-11-26T16:31:45.974Z,102327.00
2022-11-26T16:34:12.759Z,102339.00
2022-11-26T16:36:42.092Z,102343.00
2022-11-26T16:39:11.894Z,102334.00
2022-11-26T16:41:38.740Z,102336.00
2022-11-26T16:44:05.540Z,102334.00
2022-11-26T16:46:34.556Z,102336.00
2022-11-26T16:49:01.651Z,102332.00
2022-11-26T16:51:28.432Z,102343.00
2022-11-26T16:53:55.255Z,102332.00
2022-11-26T16:56:26.961Z,102331.00
2022-11-26T16:58:54.578Z,102327.00
2022-11-26T17:01:21.422Z,102313.00
2022-11-26T17:03:48.457Z,102322.00
2022-11-26T17:06:31.950Z,102320.00
2022-11-26T17:08:58.803Z,102331.00
2022-11-26T17:11:25.763Z,102332.00
2022-11-26T17:13:53.198Z,102326.00
2022-11-26T17:16:22.392Z,102331.00
2022-11-26T17:18:49.959Z,102325.00
2022-11-26T17:21:16.784Z,102331.00
2022-11-26T17:23:43.589Z,102334.00
2022-11-26T17:26:20.547Z,102342.00
2022-11-26T17:28:48.333Z,102334.00
2022-11-26T17:31:15.449Z,102341.00
2022-11-26T17:33:42.653Z,102330.00
2022-11-26T17:36:16.903Z,102339.00
2022-11-26T17:38:44.294Z,102349.00
2022-11-26T17:41:11.352Z,102332.00
2022-11-26T17:43:38.679Z,102330.00
2022-11-26T17:46:09.305Z,102334.00
2022-11-26T17:48:36.128Z,102336.00
2022-11-26T17:51:03.103Z,102332.00
2022-11-26T17:53:29.906Z,102332.00
2022-11-26T17:55:56.750Z,102334.00
2022-11-26T17:58:23.664Z,102331.00
2022-11-26T18:00:50.487Z,102328.00
2022-11-26T18:03:17.415Z,102326.00
2022-11-26T18:05:44.283Z,102330.00
2022-11-26T18:08:11.141Z,102325.00
2022-11-26T18:10:40.806Z,102325.00
2022-11-26T18:13:09.513Z,102338.00
2022-11-26T18:15:36.287Z,102327.00
2022-11-26T18:18:04.504Z,102329.00
2022-11-26T18:20:31.319Z,102332.00
2022-11-26T18:23:00.719Z,102316.00
2022-11-26T18:25:28.325Z,102321.00
2022-11-26T18:27:55.340Z,102331.00
2022-11-26T18:30:22.410Z,102329.00
2022-11-26T18:32:49.213Z,102325.00
2022-11-26T18:35:16.265Z,102329.00
2022-11-26T18:37:43.262Z,102334.00
2022-11-26T18:40:11.806Z,102326.00
2022-11-26T18:42:39.014Z,102320.00
2022-11-26T18:45:08.047Z,102325.00
2022-11-26T18:47:34.886Z,102332.00
2022-11-26T18:50:01.705Z,102330.00
2022-11-26T18:52:28.505Z,102338.00
2022-11-26T21:56:34.857Z,102310.00
2022-11-26T21:59:01.742Z,102304.00
2022-11-26T22:01:30.958Z,102309.00
2022-11-26T22:04:09.294Z,102291.00
2022-11-26T22:06:36.213Z,102300.00
2022-11-26T22:09:03.839Z,102299.00
2022-11-26T22:11:33.281Z,102311.00
2022-11-26T22:14:00.065Z,102302.00
2022-11-26T22:16:28.509Z,102304.00
2022-11-26T22:18:56.421Z,102302.00
2022-11-26T22:21:26.438Z,102305.00
2022-11-26T22:23:53.347Z,102305.00
2022-11-26T22:26:20.543Z,102300.00
2022-11-26T22:28:47.835Z,102307.00
2022-11-26T22:31:20.174Z,102306.00
2022-11-26T22:33:47.642Z,102307.00
2022-11-26T22:36:14.691Z,102313.00
2022-11-26T22:38:41.737Z,102308.00
2022-11-26T22:41:10.064Z,102314.00
2022-11-26T22:43:37.391Z,102318.00
2022-11-26T22:46:10.525Z,102317.00
2022-11-26T22:48:37.381Z,102328.00
2022-11-26T22:51:04.786Z,102331.00
2022-11-26T22:53:33.513Z,102320.00
2022-11-26T22:56:01.983Z,102325.00
2022-11-26T22:58:29.416Z,102326.00
2022-11-26T23:01:07.758Z,102328.00
2022-11-26T23:03:36.955Z,102330.00
2022-11-26T23:06:06.765Z,102317.00
2022-11-26T23:08:33.849Z,102320.00
2022-11-26T23:11:13.014Z,102322.00
2022-11-26T23:13:40.979Z,102317.00
2022-11-26T23:16:08.652Z,102316.00
2022-11-26T23:18:36.529Z,102308.00
2022-11-26T23:21:23.550Z,102304.00
2022-11-26T23:23:50.851Z,102301.00
2022-11-26T23:26:26.518Z,102302.00
2022-11-26T23:28:54.360Z,102296.00
2022-11-26T23:31:24.546Z,102280.00
2022-11-26T23:33:51.960Z,102284.00
2022-11-26T23:36:19.629Z,102266.00
2022-11-26T23:38:46.466Z,102251.00
2022-11-26T23:41:13.561Z,102236.00
2022-11-26T23:43:40.420Z,102243.00
2022-11-26T23:46:28.983Z,102243.00
2022-11-26T23:48:55.892Z,102236.00
2022-11-26T23:51:25.191Z,102231.00
2022-11-26T23:53:52.801Z,102214.00
2022-11-26T23:56:31.185Z,102200.00
2022-11-26T23:59:01.573Z,102191.00
